• Join FlightAware (Why Join?)
  • Login
  • US Flag 
12:20AM EST


 

Airport Tracker/Info


-or-


 

Live Flight TrackerFlight Track Log ✈ NKS416 ✈ 09-Mar-2014 ✈ KFLL - KIAG

Flight Track Log - Related Links

Times and Time Zones

All times are in EDT time to prevent confusion due to time zone crossing. See the NKS416 flight status page for this flight to view local times or setup timezone preferences in your user account.

Time Position Orientation Groundspeed Altitude Reporting Facility
EDT Latitude Longitude Course Direction KTS MPH feet Rate Location/Type
10:04PM 26.0750 -80.1367 56° Northeast 169 194 1,000  Level Miami Center
10:05PM 26.0783 -80.0836 86° East 201 231 2,300 1,680 Climbing Miami Center
10:06PM 26.0861 -80.0050 84° East 286 329 4,200 2,220 Climbing Miami Center
10:07PM 26.1169 -79.9272 66° East 292 336 7,000 1,800 Climbing Miami Center
10:08PM 26.1669 -79.8383 58° Northeast 307 353 8,100 1,620 Climbing Miami Center
10:09PM 26.2211 -79.7356 60° Northeast 345 397 10,300 2,160 Climbing Miami Center
10:10PM 26.3200 -79.5500 56° Northeast  Level FlightAware Approximate
10:10PM 26.2839 -79.6211 59° Northeast 381 438 12,500  Level Miami Center
10:11PM 26.3464 -79.5297 53° Northeast 403 464 14,700 1,620 Climbing Miami Center
10:17PM 26.9796 -79.1716 25° Northeast 475 547 23,700 1,440 Climbing FlightAware ADS-B (KMCO)
10:18PM 27.0023 -79.1601 25° Northeast 486 559 24,200 900 Climbing FlightAware ADS-B (KMCO)
10:18PM 27.1240 -79.0988 20° North 482 555 24,800 1,200 Climbing FlightAware ADS-B (KMCO)
10:18PM 27.1660 -79.0888 North 474 545 25,200 660 Climbing FlightAware ADS-B (KMCO)
10:19PM 27.2561 -79.0754 North 485 558 25,500 720 Climbing FlightAware ADS-B (KMCO)
10:20PM 27.3378 -79.0623 North 487 560 26,200 1,200 Climbing FlightAware ADS-B (KMCO)
10:20PM 27.4121 -79.0504 North 480 552 26,900 1,080 Climbing FlightAware ADS-B (KMCO)
10:21PM 27.4992 -79.0369 North 482 555 27,500 1,140 Climbing FlightAware ADS-B (KMCO)
10:21PM 27.5683 -79.0261 North 476 548 28,300 1,200 Climbing FlightAware ADS-B (KMCO)
10:22PM 27.6747 -79.0092 North 474 545 29,200 1,200 Climbing FlightAware ADS-B (KMCO)
10:23PM 27.7591 -78.9955 North 469 540 30,100 1,200 Climbing FlightAware ADS-B (KMCO)
10:24PM 27.8578 -78.9798 North 467 537 30,900 840 Climbing FlightAware ADS-B (KMCO)
10:25PM 27.9776 -78.9610 North 470 541 31,600 960 Climbing FlightAware ADS-B (KMCO)
10:25PM 28.0582 -78.9479 North 461 531 32,500 1,200 Climbing FlightAware ADS-B (KMCO)
10:26PM 28.1296 -78.9364 North 462 532 33,000 900 Climbing FlightAware ADS-B (KMCO)
10:26PM 28.1933 -78.9263 North 461 531 33,400 1,140 Climbing FlightAware ADS-B (KMCO)
10:27PM 28.2714 -78.9139 North 452 520 34,300 1,020 Climbing FlightAware ADS-B (KMCO)
10:28PM 28.4235 -78.8893 North 449 517 35,400 420 Climbing FlightAware ADS-B (KMCO)
10:33PM 29.0325 -78.7956 North 468 539 37,000 240 Climbing Miami Center
10:34PM 29.1642 -78.7767 North 468 539 37,000  Level Miami Center
10:35PM 29.2919 -78.7525 North 468 539 37,000  Level Miami Center
10:36PM 29.4172 -78.7333 North 462 532 37,000 -60 Level Miami Center
10:37PM 29.5406 -78.7117 North 450 518 36,900 -60 Descending Miami Center
10:39PM 29.7811 -78.6669 North 426 490 36,900  Level Jacksonville Center
10:40PM 29.9014 -78.6450 North 455 524 37,000  Climbing Jacksonville Center
10:41PM 30.0281 -78.6250 North 453 521 37,000  Level Jacksonville Center
10:42PM 30.1547 -78.6050 North 450 518 37,000  Level Jacksonville Center
10:43PM 30.2647 -78.5881 North 447 514 37,000  Level Jacksonville Center
10:44PM 30.3914 -78.5678 North 441 507 37,000  Level Jacksonville Center
10:45PM 30.5119 -78.5481 North 441 507 37,000 -60 Level Jacksonville Center
10:46PM 30.6281 -78.5281 North 435 501 36,900 -60 Descending Jacksonville Center
10:47PM 30.7464 -78.5083 North 435 501 36,900  Level Jacksonville Center
10:48PM 30.8689 -78.4881 North 435 501 36,900  Level Jacksonville Center
10:49PM 30.9892 -78.4678 North 428 493 36,900  Level Jacksonville Center
10:50PM 31.1117 -78.4475 North 439 505 37,000  Climbing Jacksonville Center
10:51PM 31.2381 -78.4244 North 444 511 37,000  Level Jacksonville Center
10:52PM 31.3606 -78.4017 North 444 511 37,000 -60 Level Jacksonville Center
10:53PM 31.4808 -78.3836 North 444 511 36,900 -60 Descending Jacksonville Center
10:54PM 31.6033 -78.3606 North 444 511 36,900  Level Jacksonville Center
10:55PM 31.7258 -78.3425 North 444 511 36,900  Level Jacksonville Center
10:56PM 31.8461 -78.3219 North 444 511 36,900  Level Jacksonville Center
10:57PM 31.9706 -78.3011 North 444 511 37,000  Climbing Jacksonville Center
10:58PM 32.0969 -78.2750 10° North 444 511 37,000  Level Jacksonville Center
10:59PM 32.2153 -78.2569 North 443 510 37,000  Level Jacksonville Center
11:00PM 32.3356 -78.2361 North 438 504 37,000 -60 Level Jacksonville Center
11:01PM 32.4536 -78.2103 10° North 438 504 36,900 -60 Descending Jacksonville Center
11:02PM 32.5742 -78.1942 North 438 504 36,900  Level Jacksonville Center
11:03PM 32.6942 -78.1658 11° North 433 498 37,000  Climbing Jacksonville Center
11:04PM 32.8103 -78.1497 North 433 498 37,000  Level Jacksonville Center
11:05PM 32.9283 -78.1261 10° North 428 493 37,000 -60 Level Jacksonville Center
11:06PM 33.0467 -78.1050 North 428 493 36,900  Descending Jacksonville Center
11:07PM 33.1647 -78.0864 North 428 493 37,000  Climbing Jacksonville Center
11:09PM 33.4019 -78.0467 North 428 493 36,900 -60 Descending Washington Center
11:10PM 33.5214 -78.0253 North 428 493 36,900  Level Washington Center
11:11PM 33.6406 -78.0039 North 428 493 37,000  Climbing Washington Center
11:12PM 33.7619 -77.9822 North 428 493 37,000  Level Washington Center
11:13PM 33.8856 -77.9608 North 428 493 37,000  Level Washington Center
11:14PM 34.0258 -77.9347 North 446 513 37,000  Level Washington Center
11:15PM 34.1514 -77.9133 North 451 519 37,000  Level Washington Center
11:16PM 34.2769 -77.8892 North 451 519 37,100  Climbing Washington Center
11:17PM 34.4047 -77.8750 North 456 525 37,000 -120 Descending Washington Center
11:18PM 34.5214 -77.8733 North 433 498 36,900  Descending Washington Center
11:19PM 34.6425 -77.8742 360° North 428 493 37,000  Climbing Washington Center
11:20PM 34.7594 -77.8697 North 423 487 36,900  Descending Washington Center
11:21PM 34.8764 -77.8681 North 418 481 37,000  Climbing Washington Center
11:26PM 35.5291 -77.9448 355° North 416 479 37,000  Level FlightAware ADS-B (EDDH / HAM)
11:31PM 36.0331 -78.0052 354° North 426 490 37,000  Level FlightAware ADS-B (EDDH / HAM)
11:31PM 36.0929 -78.0123 355° North 430 495 37,000  Level FlightAware ADS-B (EDDH / HAM)
11:32PM 36.1784 -78.0225 354° North 430 495 37,000  Level FlightAware ADS-B (EDDH / HAM)
11:35PM 36.5540 -78.0680 354° North 421 484 37,000  Level FlightAware ADS-B (EDDH / HAM)
11:36PM 36.6103 -78.0761 354° North 420 483 37,000  Level Washington Center
11:37PM 36.7267 -78.0928 353° North 420 483 37,000  Level Washington Center
11:38PM 36.8453 -78.1069 355° North 420 483 37,000  Level Washington Center
11:39PM 36.9639 -78.1211 355° North 420 483 37,000  Level Washington Center
11:45PM 37.6886 -78.2087 354° North 428 493 37,000  Level FlightAware ADS-B (KCHO)
11:46PM 37.7697 -78.2190 354° North 426 490 37,000  Level FlightAware ADS-B (KCHO)
11:46PM 37.8300 -78.2264 354° North 418 481 37,000  Level FlightAware ADS-B (KCHO)
11:47PM 37.8888 -78.2337 354° North 409 471 37,000  Level FlightAware ADS-B (KCHO)
11:47PM 37.9411 -78.2403 354° North 407 468 37,000  Level FlightAware ADS-B (KCHO)
11:48PM 37.9996 -78.2478 354° North 403 464 37,000  Level FlightAware ADS-B (KCHO)
11:48PM 38.0545 -78.2549 354° North 405 466 37,000  Level FlightAware ADS-B (KCHO)
11:49PM 38.1129 -78.2622 354° North 406 467 37,000  Level FlightAware ADS-B (KCHO)
11:50PM 38.2160 -78.2754 354° North 406 467 37,000  Level FlightAware ADS-B (KCHO)
11:51PM 38.3356 -78.2903 354° North 405 466 37,000  Level Cleveland Center
11:52PM 38.4489 -78.3061 354° North 405 466 37,000  Level Cleveland Center
11:53PM 38.5606 -78.3203 354° North 404 465 37,000  Level Cleveland Center
11:54PM 38.6700 -78.3336 355° North 397 457 37,000  Level Cleveland Center
11:55PM 38.7803 -78.3475 354° North 397 457 37,000  Level Cleveland Center
11:56PM 38.8681 -78.3606 353° North 396 456 37,000  Level Cleveland Center
11:57PM 38.9775 -78.3750 354° North 395 455 37,000  Level Cleveland Center
11:58PM 39.0858 -78.3881 355° North 394 453 37,000  Level Cleveland Center
11:59PM 39.1944 -78.4022 354° North 393 452 37,000  Level Cleveland Center
12:00AM 39.3019 -78.4158 354° North 390 449 37,000  Level Cleveland Center
12:01AM 39.4094 -78.4300 354° North 388 447 37,000  Level Cleveland Center
12:02AM 39.5172 -78.4450 354° North 388 447 37,000  Level Cleveland Center
12:05AM 39.9001 -78.4950 354° North 377 434 37,000  Level FlightAware ADS-B (KWWD)
12:09AM 40.2667 -78.5441 354° North 375 432 37,000  Level FlightAware ADS-B (KWWD)
12:09AM 40.3187 -78.5512 354° North 376 433 37,000  Level FlightAware ADS-B (KWWD)
12:13AM 40.7339 -78.6079 354° North 387 445 37,000  Level FlightAware ADS-B (CYYZ)
12:14AM 40.8370 -78.6219 354° North 387 445 37,000  Level FlightAware ADS-B (CYYZ)
12:15AM 40.9473 -78.6370 354° North 386 444 37,000  Level FlightAware ADS-B (CYYZ)
12:15AM 41.0047 -78.6449 354° North 386 444 37,000 -420 Level FlightAware ADS-B (CYYZ)
12:16AM 41.0570 -78.6523 354° North 384 442 36,600 -840 Descending FlightAware ADS-B (CYYZ)
12:16AM 41.1098 -78.6595 354° North 372 428 36,200 -900 Descending FlightAware ADS-B (CYYZ)
12:17AM 41.1605 -78.6666 354° North 361 415 35,700 -900 Descending FlightAware ADS-B (CYYZ)
12:17AM 41.2099 -78.6736 354° North 348 400 35,300 -900 Descending FlightAware ADS-B (CYYZ)
12:18AM 41.2570 -78.6802 354° North 347 399 34,800 -1,020 Descending FlightAware ADS-B (CYYZ)
12:18AM 41.3057 -78.6872 354° North 355 409 34,300 -900 Descending FlightAware ADS-B (CYYZ)
12:19AM 41.3553 -78.6942 354° North 364 419 33,900 -1,020 Descending FlightAware ADS-B (CYYZ)
12:19AM 41.4071 -78.7014 355° North 375 432 33,300 -1,140 Descending FlightAware ADS-B (CYYZ)
12:20AM 41.4569 -78.7083 355° North 383 441 32,800 -1,020 Descending FlightAware ADS-B (CYYZ)
12:21AM 41.5117 -78.7158 354° North 391 450 32,300 -1,020 Descending FlightAware ADS-B (CYYZ)
12:21AM 41.5664 -78.7234 354° North 398 458 31,800 -1,440 Descending FlightAware ADS-B (CYYZ)
12:21AM 41.6203 -78.7310 355° North 402 463 30,900 -2,640 Descending FlightAware ADS-B (CYYZ)
12:22AM 41.6750 -78.7387 354° North 405 466 29,200 -3,180 Descending FlightAware ADS-B (CYYZ)
12:23AM 41.7320 -78.7469 354° North 409 471 27,700 -2,820 Descending FlightAware ADS-B (CYYZ)
12:23AM 41.7897 -78.7550 354° North 404 465 26,400 -2,760 Descending FlightAware ADS-B (CYYZ)
12:23AM 41.8449 -78.7628 354° North 401 461 25,000 -2,700 Descending FlightAware ADS-B (CYYZ)
12:24AM 41.8983 -78.7703 354° North 399 459 23,700 -2,640 Descending FlightAware ADS-B (CYYZ)
12:24AM 41.9528 -78.7781 354° North 396 456 22,400 -2,640 Descending FlightAware ADS-B (CYYZ)
12:25AM 42.0056 -78.7856 354° North 393 452 21,100 -2,580 Descending FlightAware ADS-B (CYYZ)
12:26AM 42.0624 -78.7938 354° North 391 450 19,800 -2,520 Descending FlightAware ADS-B (CYYZ)
12:26AM 42.1143 -78.8011 354° North 387 445 18,600 -2,580 Descending FlightAware ADS-B (CYYZ)
12:26AM 42.1682 -78.8088 354° North 386 444 17,300 -2,640 Descending FlightAware ADS-B (CYYZ)
12:27AM 42.2216 -78.8165 354° North 379 436 16,000 -2,520 Descending FlightAware ADS-B (CYYZ)
12:27AM 42.2733 -78.8238 354° North 370 426 14,800 -2,460 Descending FlightAware ADS-B (CYYZ)
12:28AM 42.3220 -78.8309 354° North 363 418 13,500 -2,400 Descending FlightAware ADS-B (CYYZ)
12:28AM 42.3720 -78.8382 354° North 355 409 12,400 -2,040 Descending FlightAware ADS-B (CYYZ)
12:29AM 42.4197 -78.8449 354° North 340 391 11,500 -1,440 Descending FlightAware ADS-B (CYYZ)
12:29AM 42.4525 -78.8445 10° North 353 406 11,200 -840 Descending FlightAware ADS-B (CYYZ)
12:30AM 42.4976 -78.8252 19° North 336 387 10,800 -840 Descending FlightAware ADS-B (CYYZ)
12:30AM 42.5382 -78.8059 19° North 299 344 10,400 -900 Descending FlightAware ADS-B (CYYZ)
12:31AM 42.5764 -78.7870 20° North 282 325 9,900 -1,080 Descending FlightAware ADS-B (CYYZ)
12:31AM 42.5949 -78.7778 20° North 279 321 9,600 -1,620 Descending FlightAware ADS-B (CYYZ)
12:31AM 42.6135 -78.7687 20° North 279 321 9,100 -1,800 Descending FlightAware ADS-B (CYYZ)
12:32AM 42.6309 -78.7600 20° North 280 322 8,700 -1,800 Descending FlightAware ADS-B (CYYZ)
12:32AM 42.6505 -78.7503 20° North 283 326 8,200 -2,040 Descending FlightAware ADS-B (CYYZ)
12:32AM 42.6676 -78.7420 19° North 285 328 7,700 -1,680 Descending FlightAware ADS-B (CYYZ)
12:32AM 42.6856 -78.7331 19° North 284 327 7,400 -1,440 Descending FlightAware ADS-B (CYYZ)
12:33AM 42.7467 -78.7034 19° North 278 320 6,200 -1,140 Descending FlightAware ADS-B (CYYZ)
12:34AM 42.7901 -78.6829 19° North 254 292 5,700 -1,020 Descending FlightAware ADS-B (CYYZ)
12:34AM 42.8259 -78.6656 19° North 256 295 5,000 -1,080 Descending FlightAware ADS-B (CYYZ)
12:35AM 42.8920 -78.6326 20° North 261 300 4,100 -420 Descending FlightAware ADS-B (CYYZ)
12:37AM 42.9833 -78.6213 North 240 276 4,100  Level FlightAware ADS-B (CYYZ)
12:37AM 43.0053 -78.6194 North 221 254 4,100  Level FlightAware ADS-B (CYYZ)
12:38AM 43.0360 -78.6155 North 208 239 4,100  Level FlightAware ADS-B (CYYZ)
12:38AM 43.0544 -78.6136 North 204 235 4,100  Level FlightAware ADS-B (CYYZ)
12:38AM 43.0578 -78.6143 350° North 198 228 4,100 -900 Level FlightAware ADS-B (CYYZ)
12:38AM 43.0697 -78.6221 330° Northwest 182 209 3,800 -1,200 Descending FlightAware ADS-B (CYYZ)
12:38AM 43.0807 -78.6325 326° Northwest 180 207 3,500 -1,260 Descending FlightAware ADS-B (CYYZ)
12:39AM 43.1000 -78.6500 326° Northwest 173 199 2,800 -840 Descending Buffalo TRACON
12:40AM 43.1167 -78.7000 295° West 129 148 2,300 -300 Descending Buffalo TRACON
12:41AM 43.1167 -78.7500 270° West 126 145 2,300 -60 Level Buffalo TRACON
12:42AM 43.1167 -78.8000 270° West 131 151 2,200 -360 Descending Buffalo TRACON
12:43AM 43.1167 -78.8500 270° West 131 151 1,600 -600 Descending Buffalo TRACON
12:44AM 43.1167 -78.9000 270° West 134 154 1,000 -600 Descending Buffalo TRACON